Concerto — JJ3855 — position and weather

sailwx.info

Track history (hours):
 
Tides and Currents Weather Stations Pressure Air Temp Water Temp Dewpoint Dewpoint Depression Visibility Wind Speed Wind Dir Waves Ship Positions

Concerto

Last reported at 2015-Jun-29 11:33 UTC. Time now 2015-Jun-29 23:11 UTC.
Position N 34°38' E 135°11'.

Length 74 m; draft 3 m.

Type: Passenger vessel. MMSI: 431000448.

Date/timePositionNaut miles runAvg speedWind from/ knotsBaromVisibWave heightAir tempDewpointWater temp
2015-Jun-29 11:33N 34°38' E 135°11'2 2.0
2015-Jun-29 10:33N 34°40' E 135°11'1 0.6
2015-Jun-29 09:33N 34°39' E 135°11'1 0.9
2015-Jun-29 08:33N 34°39' E 135°11'2 2.1
2015-Jun-29 07:30N 34°41' E 135°11'3 3.4
2015-Jun-29 06:33N 34°38' E 135°09'3 3.1
2015-Jun-29 05:32N 34°41' E 135°11'0 0.3
2015-Jun-29 04:33N 34°41' E 135°11'3 3.1
2015-Jun-29 03:33N 34°38' E 135°09'3 3.3
2015-Jun-29 02:33N 34°41' E 135°11'0 0.0
2015-Jun-29 01:33N 34°41' E 135°11'0 0.0
2015-Jun-29 00:15N 34°41' E 135°11'0 0.0
2015-Jun-28 23:33N 34°41' E 135°11'0 0.0
2015-Jun-28 22:27N 34°41' E 135°11'0 0.0
2015-Jun-28 21:33N 34°41' E 135°11'0 0.0
2015-Jun-28 20:33N 34°41' E 135°11'0 0.0
2015-Jun-28 19:33N 34°41' E 135°11'0 0.0
2015-Jun-28 18:33N 34°41' E 135°11'0 0.0
2015-Jun-28 17:27N 34°41' E 135°11'0 0.0
2015-Jun-28 16:33N 34°41' E 135°11'0 0.0
2015-Jun-28 15:33N 34°41' E 135°11'0 0.0
2015-Jun-28 14:33N 34°41' E 135°11'0 0.0
2015-Jun-28 13:33N 34°41' E 135°11'0 0.0
2015-Jun-28 12:33N 34°41' E 135°11'3 3.1
2015-Jun-28 11:33N 34°38' E 135°10'2 2.5
2015-Jun-28 10:33N 34°40' E 135°11'1 1.3
2015-Jun-28 09:33N 34°39' E 135°11'0 0.4
2015-Jun-28 08:33N 34°39' E 135°11'2 2.1
2015-Jun-28 07:30N 34°41' E 135°11'4 3.8
2015-Jun-28 06:33N 34°38' E 135°09'4 3.5
2015-Jun-28 05:32N 34°41' E 135°11'0 0.5
2015-Jun-28 04:33N 34°40' E 135°11'3 3.0
2015-Jun-28 03:33N 34°38' E 135°09'3 3.1
2015-Jun-28 02:32N 34°41' E 135°11'0 0.0
2015-Jun-28 01:32N 34°41' E 135°11'0 0.0
2015-Jun-28 00:32N 34°41' E 135°11'0 0.0
2015-Jun-27 23:32N 34°41' E 135°11'0 0.0
2015-Jun-27 22:32N 34°41' E 135°11'0 0.0
2015-Jun-27 21:32N 34°41' E 135°11'0 0.0
2015-Jun-27 20:32N 34°41' E 135°11'0 0.0
2015-Jun-27 19:32N 34°41' E 135°11'0 0.0
2015-Jun-27 18:32N 34°41' E 135°11'0 0.0
2015-Jun-27 17:32N 34°41' E 135°11'0 0.0
2015-Jun-27 16:32N 34°41' E 135°11'0 0.0
2015-Jun-27 15:32N 34°41' E 135°11'0 0.0
2015-Jun-27 14:32N 34°41' E 135°11'0 0.0
2015-Jun-27 13:32N 34°41' E 135°11'0 0.0
2015-Jun-27 12:32N 34°41' E 135°11'3 2.9
2015-Jun-27 11:33N 34°38' E 135°10'2 2.1
2015-Jun-27 10:33N 34°40' E 135°11'1 1.0
2015-Jun-27 09:33N 34°39' E 135°11'1 0.9
2015-Jun-27 08:33N 34°38' E 135°11'2 2.4
2015-Jun-27 07:31N 34°41' E 135°11'3 3.6
2015-Jun-27 06:33N 34°38' E 135°09'3 3.1
2015-Jun-27 05:27N 34°41' E 135°11'1 0.7
2015-Jun-27 04:33N 34°40' E 135°12'3 2.8
2015-Jun-27 03:33N 34°38' E 135°10'3 3.0
2015-Jun-27 02:29N 34°41' E 135°11'0 0.0
2015-Jun-27 01:23N 34°41' E 135°11'0 0.0
2015-Jun-27 00:23N 34°41' E 135°11'0 0.0
2015-Jun-26 23:29N 34°41' E 135°11'0 0.0
2015-Jun-26 22:29N 34°41' E 135°11'0 0.0
2015-Jun-26 21:29N 34°41' E 135°11'0 0.0
2015-Jun-26 20:29N 34°41' E 135°11'0 0.0
2015-Jun-26 19:23N 34°41' E 135°11'0 0.0
2015-Jun-26 18:29N 34°41' E 135°11'0 0.0
2015-Jun-26 17:23N 34°41' E 135°11'0 0.0
2015-Jun-26 16:23N 34°41' E 135°11'0 0.0
2015-Jun-26 15:29N 34°41' E 135°11'0 0.0
2015-Jun-26 14:29N 34°41' E 135°11'0 0.0
2015-Jun-26 13:29N 34°41' E 135°11'0 0.0
2015-Jun-26 12:29N 34°41' E 135°11'3 3.3
2015-Jun-26 11:33N 34°38' E 135°10'2 2.2
2015-Jun-26 10:33N 34°40' E 135°11'1 0.8
2015-Jun-26 09:33N 34°39' E 135°11'1 0.8
2015-Jun-26 08:33N 34°39' E 135°10'2 2.2
2015-Jun-26 07:30N 34°41' E 135°11'3 3.6
2015-Jun-26 06:33N 34°38' E 135°09'3 3.3
2015-Jun-26 05:31N 34°41' E 135°11'0 0.5
2015-Jun-26 04:33N 34°40' E 135°11'3 3.3
2015-Jun-26 03:33N 34°38' E 135°09'3 0.2
2015-Jun-25 12:28N 34°41' E 135°11'3 3.0
2015-Jun-25 11:33N 34°38' E 135°11'2 1.7
2015-Jun-25 10:33N 34°40' E 135°11'1 0.5
2015-Jun-25 09:33N 34°39' E 135°11'1 0.6
2015-Jun-25 08:33N 34°39' E 135°11'2 2.1
2015-Jun-25 07:32N 34°41' E 135°11'3 3.4
2015-Jun-25 06:33N 34°38' E 135°09'3 3.3
2015-Jun-25 05:32N 34°41' E 135°11'0 0.5
2015-Jun-25 04:33N 34°40' E 135°11'3 3.0
2015-Jun-25 03:33N 34°38' E 135°09'1 0.0
2015-Jun-24 11:33N 34°38' E 135°10'2 2.4
2015-Jun-24 10:33N 34°40' E 135°11'1 0.7
2015-Jun-24 09:33N 34°39' E 135°11'1 0.9
2015-Jun-24 08:33N 34°39' E 135°11'2 2.2
2015-Jun-24 07:33N 34°41' E 135°11'3 3.3
2015-Jun-24 06:33N 34°38' E 135°09'3 3.1
2015-Jun-24 05:30N 34°41' E 135°11'1 0.7
2015-Jun-24 04:33N 34°40' E 135°12'3 3.1
2015-Jun-24 03:33N 34°38' E 135°09'2 0.0
2015-Jun-22 11:33N 34°38' E 135°11'2 1.5
2015-Jun-22 10:33N 34°40' E 135°11'0 0.1
2015-Jun-22 09:33N 34°39' E 135°11'1 1.0
2015-Jun-22 08:33N 34°39' E 135°11'2 2.1
2015-Jun-22 07:29N 34°41' E 135°11'3 3.5
2015-Jun-22 06:33N 34°38' E 135°10'3 2.8
2015-Jun-22 05:24N 34°41' E 135°11'0 0.5
2015-Jun-22 04:33N 34°40' E 135°11'3 3.3
2015-Jun-22 03:33N 34°38' E 135°09'1 0.1
2015-Jun-21 11:33N 34°38' E 135°10'2 1.8
2015-Jun-21 10:34N 34°40' E 135°11'1 0.7
2015-Jun-21 09:33N 34°39' E 135°11'0 0.5
2015-Jun-21 08:33N 34°39' E 135°11'2 2.1
2015-Jun-21 07:31N 34°41' E 135°11'3 3.3
2015-Jun-21 06:33N 34°38' E 135°10'3 3.0
2015-Jun-21 05:30N 34°41' E 135°11'0 0.5
2015-Jun-21 04:33N 34°40' E 135°11'3 3.2
2015-Jun-21 03:33N 34°38' E 135°09'3 3.3
2015-Jun-21 02:31N 34°41' E 135°11'0 0.0
2015-Jun-20 12:33N 34°41' E 135°11'3 2.8
2015-Jun-20 11:33N 34°38' E 135°10'2 2.0
2015-Jun-20 10:33N 34°40' E 135°11'0 0.2
2015-Jun-20 09:33N 34°40' E 135°11'1 1.3
2015-Jun-20 08:33N 34°39' E 135°11'2 2.2
2015-Jun-20 07:33N 34°41' E 135°11'3 3.1
2015-Jun-20 06:33N 34°38' E 135°10'3 2.5
2015-Jun-20 05:17N 34°41' E 135°11'0 0.6
2015-Jun-20 04:33N 34°40' E 135°11'3 3.0
2015-Jun-20 03:33N 34°38' E 135°09'3 3.0
2015-Jun-20 02:30N 34°41' E 135°11'0 0.0
2015-Jun-20 01:30N 34°41' E 135°11'0 0.0
2015-Jun-20 00:24N 34°41' E 135°11'0 0.0
2015-Jun-19 23:30N 34°41' E 135°11'0 0.0
2015-Jun-19 22:30N 34°41' E 135°11'0 0.0
2015-Jun-19 21:18N 34°41' E 135°11'0 0.0
2015-Jun-19 20:30N 34°41' E 135°11'0 0.0
2015-Jun-19 19:30N 34°41' E 135°11'0 0.0
2015-Jun-19 18:12N 34°41' E 135°11'0 0.0
2015-Jun-19 17:30N 34°41' E 135°11'0 0.0
2015-Jun-19 16:30N 34°41' E 135°11'0 0.0
2015-Jun-19 15:30N 34°41' E 135°11'0 0.0
2015-Jun-19 14:24N 34°41' E 135°11'0 0.0
2015-Jun-19 13:24N 34°41' E 135°11'0 0.0
2015-Jun-19 12:30N 34°41' E 135°11'3 2.9
2015-Jun-19 11:34N 34°38' E 135°11'  
Track history (hours):
 
Tides and Currents Weather Stations Pressure Air Temp Water Temp Dewpoint Dewpoint Depression Visibility Wind Speed Wind Dir Waves Ship Positions

Concerto

Last reported at 2015-Jun-29 11:33 UTC. Time now 2015-Jun-29 23:11 UTC.
Position N 34°38' E 135°11'.

Length 74 m; draft 3 m.

Type: Passenger vessel. MMSI: 431000448.

Date/timePositionNaut miles runAvg speedWind from/ knotsBaromVisibWave heightAir tempDewpointWater temp
2015-Jun-29 11:33N 34°38' E 135°11'2 2.0
2015-Jun-29 10:33N 34°40' E 135°11'1 0.6
2015-Jun-29 09:33N 34°39' E 135°11'1 0.9
2015-Jun-29 08:33N 34°39' E 135°11'2 2.1
2015-Jun-29 07:30N 34°41' E 135°11'3 3.4
2015-Jun-29 06:33N 34°38' E 135°09'3 3.1
2015-Jun-29 05:32N 34°41' E 135°11'0 0.3
2015-Jun-29 04:33N 34°41' E 135°11'3 3.1
2015-Jun-29 03:33N 34°38' E 135°09'3 3.3
2015-Jun-29 02:33N 34°41' E 135°11'0 0.0
2015-Jun-29 01:33N 34°41' E 135°11'0 0.0
2015-Jun-29 00:15N 34°41' E 135°11'0 0.0
2015-Jun-28 23:33N 34°41' E 135°11'0 0.0
2015-Jun-28 22:27N 34°41' E 135°11'0 0.0
2015-Jun-28 21:33N 34°41' E 135°11'0 0.0
2015-Jun-28 20:33N 34°41' E 135°11'0 0.0
2015-Jun-28 19:33N 34°41' E 135°11'0 0.0
2015-Jun-28 18:33N 34°41' E 135°11'0 0.0
2015-Jun-28 17:27N 34°41' E 135°11'0 0.0
2015-Jun-28 16:33N 34°41' E 135°11'0 0.0
2015-Jun-28 15:33N 34°41' E 135°11'0 0.0
2015-Jun-28 14:33N 34°41' E 135°11'0 0.0
2015-Jun-28 13:33N 34°41' E 135°11'0 0.0
2015-Jun-28 12:33N 34°41' E 135°11'3 3.1
2015-Jun-28 11:33N 34°38' E 135°10'2 2.5
2015-Jun-28 10:33N 34°40' E 135°11'1 1.3
2015-Jun-28 09:33N 34°39' E 135°11'0 0.4
2015-Jun-28 08:33N 34°39' E 135°11'2 2.1
2015-Jun-28 07:30N 34°41' E 135°11'4 3.8
2015-Jun-28 06:33N 34°38' E 135°09'4 3.5
2015-Jun-28 05:32N 34°41' E 135°11'0 0.5
2015-Jun-28 04:33N 34°40' E 135°11'3 3.0
2015-Jun-28 03:33N 34°38' E 135°09'3 3.1
2015-Jun-28 02:32N 34°41' E 135°11'0 0.0
2015-Jun-28 01:32N 34°41' E 135°11'0 0.0
2015-Jun-28 00:32N 34°41' E 135°11'0 0.0
2015-Jun-27 23:32N 34°41' E 135°11'0 0.0
2015-Jun-27 22:32N 34°41' E 135°11'0 0.0
2015-Jun-27 21:32N 34°41' E 135°11'0 0.0
2015-Jun-27 20:32N 34°41' E 135°11'0 0.0
2015-Jun-27 19:32N 34°41' E 135°11'0 0.0
2015-Jun-27 18:32N 34°41' E 135°11'0 0.0
2015-Jun-27 17:32N 34°41' E 135°11'0 0.0
2015-Jun-27 16:32N 34°41' E 135°11'0 0.0
2015-Jun-27 15:32N 34°41' E 135°11'0 0.0
2015-Jun-27 14:32N 34°41' E 135°11'0 0.0
2015-Jun-27 13:32N 34°41' E 135°11'0 0.0
2015-Jun-27 12:32N 34°41' E 135°11'3 2.9
2015-Jun-27 11:33N 34°38' E 135°10'2 2.1
2015-Jun-27 10:33N 34°40' E 135°11'1 1.0
2015-Jun-27 09:33N 34°39' E 135°11'1 0.9
2015-Jun-27 08:33N 34°38' E 135°11'2 2.4
2015-Jun-27 07:31N 34°41' E 135°11'3 3.6
2015-Jun-27 06:33N 34°38' E 135°09'3 3.1
2015-Jun-27 05:27N 34°41' E 135°11'1 0.7
2015-Jun-27 04:33N 34°40' E 135°12'3 2.8
2015-Jun-27 03:33N 34°38' E 135°10'3 3.0
2015-Jun-27 02:29N 34°41' E 135°11'0 0.0
2015-Jun-27 01:23N 34°41' E 135°11'0 0.0
2015-Jun-27 00:23N 34°41' E 135°11'0 0.0
2015-Jun-26 23:29N 34°41' E 135°11'0 0.0
2015-Jun-26 22:29N 34°41' E 135°11'0 0.0
2015-Jun-26 21:29N 34°41' E 135°11'0 0.0
2015-Jun-26 20:29N 34°41' E 135°11'0 0.0
2015-Jun-26 19:23N 34°41' E 135°11'0 0.0
2015-Jun-26 18:29N 34°41' E 135°11'0 0.0
2015-Jun-26 17:23N 34°41' E 135°11'0 0.0
2015-Jun-26 16:23N 34°41' E 135°11'0 0.0
2015-Jun-26 15:29N 34°41' E 135°11'0 0.0
2015-Jun-26 14:29N 34°41' E 135°11'0 0.0
2015-Jun-26 13:29N 34°41' E 135°11'0 0.0
2015-Jun-26 12:29N 34°41' E 135°11'3 3.3
2015-Jun-26 11:33N 34°38' E 135°10'2 2.2
2015-Jun-26 10:33N 34°40' E 135°11'1 0.8
2015-Jun-26 09:33N 34°39' E 135°11'1 0.8
2015-Jun-26 08:33N 34°39' E 135°10'2 2.2
2015-Jun-26 07:30N 34°41' E 135°11'3 3.6
2015-Jun-26 06:33N 34°38' E 135°09'3 3.3
2015-Jun-26 05:31N 34°41' E 135°11'0 0.5
2015-Jun-26 04:33N 34°40' E 135°11'3 3.3
2015-Jun-26 03:33N 34°38' E 135°09'3 0.2
2015-Jun-25 12:28N 34°41' E 135°11'3 3.0
2015-Jun-25 11:33N 34°38' E 135°11'2 1.7
2015-Jun-25 10:33N 34°40' E 135°11'1 0.5
2015-Jun-25 09:33N 34°39' E 135°11'1 0.6
2015-Jun-25 08:33N 34°39' E 135°11'2 2.1
2015-Jun-25 07:32N 34°41' E 135°11'3 3.4
2015-Jun-25 06:33N 34°38' E 135°09'3 3.3
2015-Jun-25 05:32N 34°41' E 135°11'0 0.5
2015-Jun-25 04:33N 34°40' E 135°11'3 3.0
2015-Jun-25 03:33N 34°38' E 135°09'1 0.0
2015-Jun-24 11:33N 34°38' E 135°10'2 2.4
2015-Jun-24 10:33N 34°40' E 135°11'1 0.7
2015-Jun-24 09:33N 34°39' E 135°11'1 0.9
2015-Jun-24 08:33N 34°39' E 135°11'2 2.2
2015-Jun-24 07:33N 34°41' E 135°11'3 3.3
2015-Jun-24 06:33N 34°38' E 135°09'3 3.1
2015-Jun-24 05:30N 34°41' E 135°11'1 0.7
2015-Jun-24 04:33N 34°40' E 135°12'3 3.1
2015-Jun-24 03:33N 34°38' E 135°09'2 0.0
2015-Jun-22 11:33N 34°38' E 135°11'2 1.5
2015-Jun-22 10:33N 34°40' E 135°11'0 0.1
2015-Jun-22 09:33N 34°39' E 135°11'1 1.0
2015-Jun-22 08:33N 34°39' E 135°11'2 2.1
2015-Jun-22 07:29N 34°41' E 135°11'3 3.5
2015-Jun-22 06:33N 34°38' E 135°10'3 2.8
2015-Jun-22 05:24N 34°41' E 135°11'0 0.5
2015-Jun-22 04:33N 34°40' E 135°11'3 3.3
2015-Jun-22 03:33N 34°38' E 135°09'1 0.1
2015-Jun-21 11:33N 34°38' E 135°10'2 1.8
2015-Jun-21 10:34N 34°40' E 135°11'1 0.7
2015-Jun-21 09:33N 34°39' E 135°11'0 0.5
2015-Jun-21 08:33N 34°39' E 135°11'2 2.1
2015-Jun-21 07:31N 34°41' E 135°11'3 3.3
2015-Jun-21 06:33N 34°38' E 135°10'3 3.0
2015-Jun-21 05:30N 34°41' E 135°11'0 0.5
2015-Jun-21 04:33N 34°40' E 135°11'3 3.2
2015-Jun-21 03:33N 34°38' E 135°09'3 3.3
2015-Jun-21 02:31N 34°41' E 135°11'0 0.0
2015-Jun-20 12:33N 34°41' E 135°11'3 2.8
2015-Jun-20 11:33N 34°38' E 135°10'2 2.0
2015-Jun-20 10:33N 34°40' E 135°11'0 0.2
2015-Jun-20 09:33N 34°40' E 135°11'1 1.3
2015-Jun-20 08:33N 34°39' E 135°11'2 2.2
2015-Jun-20 07:33N 34°41' E 135°11'3 3.1
2015-Jun-20 06:33N 34°38' E 135°10'3 2.5
2015-Jun-20 05:17N 34°41' E 135°11'0 0.6
2015-Jun-20 04:33N 34°40' E 135°11'3 3.0
2015-Jun-20 03:33N 34°38' E 135°09'3 3.0
2015-Jun-20 02:30N 34°41' E 135°11'0 0.0
2015-Jun-20 01:30N 34°41' E 135°11'0 0.0
2015-Jun-20 00:24N 34°41' E 135°11'0 0.0
2015-Jun-19 23:30N 34°41' E 135°11'0 0.0
2015-Jun-19 22:30N 34°41' E 135°11'0 0.0
2015-Jun-19 21:18N 34°41' E 135°11'0 0.0
2015-Jun-19 20:30N 34°41' E 135°11'0 0.0
2015-Jun-19 19:30N 34°41' E 135°11'0 0.0
2015-Jun-19 18:12N 34°41' E 135°11'0 0.0
2015-Jun-19 17:30N 34°41' E 135°11'0 0.0
2015-Jun-19 16:30N 34°41' E 135°11'0 0.0
2015-Jun-19 15:30N 34°41' E 135°11'0 0.0
2015-Jun-19 14:24N 34°41' E 135°11'0 0.0
2015-Jun-19 13:24N 34°41' E 135°11'0 0.0
2015-Jun-19 12:30N 34°41' E 135°11'3 2.9
2015-Jun-19 11:34N 34°38' E 135°11'  

Dump ship's entire track history